sensor_id;sensor_type;location;lat;lon;timestamp;P1;durP1;ratioP1;P2;durP2;ratioP2
25107;SDS011;13090;53.422;7.670;2023-03-14T00:01:48;16.63;;;3.47;;
25107;SDS011;13090;53.422;7.670;2023-03-14T00:06:51;16.70;;;3.53;;
25107;SDS011;13090;53.422;7.670;2023-03-14T00:11:53;18.25;;;3.53;;
25107;SDS011;13090;53.422;7.670;2023-03-14T00:16:55;21.02;;;3.88;;
25107;SDS011;13090;53.422;7.670;2023-03-14T00:21:59;24.23;;;3.75;;
25107;SDS011;13090;53.422;7.670;2023-03-14T00:27:01;21.52;;;3.08;;
25107;SDS011;13090;53.422;7.670;2023-03-14T00:32:03;17.27;;;3.22;;
25107;SDS011;13090;53.422;7.670;2023-03-14T00:37:07;19.13;;;3.40;;
25107;SDS011;13090;53.422;7.670;2023-03-14T00:42:09;20.77;;;3.30;;
25107;SDS011;13090;53.422;7.670;2023-03-14T00:47:11;17.92;;;3.38;;
25107;SDS011;13090;53.422;7.670;2023-03-14T00:52:15;22.92;;;3.83;;
25107;SDS011;13090;53.422;7.670;2023-03-14T00:57:17;26.67;;;3.85;;
25107;SDS011;13090;53.422;7.670;2023-03-14T01:02:19;19.27;;;3.45;;
25107;SDS011;13090;53.422;7.670;2023-03-14T01:07:23;14.25;;;2.70;;
25107;SDS011;13090;53.422;7.670;2023-03-14T01:12:25;16.25;;;3.08;;
25107;SDS011;13090;53.422;7.670;2023-03-14T01:17:29;19.60;;;3.45;;
25107;SDS011;13090;53.422;7.670;2023-03-14T01:22:32;15.05;;;3.10;;
25107;SDS011;13090;53.422;7.670;2023-03-14T01:27:34;18.38;;;3.38;;
25107;SDS011;13090;53.422;7.670;2023-03-14T01:32:37;17.25;;;3.38;;
25107;SDS011;13090;53.422;7.670;2023-03-14T01:37:41;15.10;;;3.25;;
25107;SDS011;13090;53.422;7.670;2023-03-14T01:42:46;17.05;;;3.33;;
25107;SDS011;13090;53.422;7.670;2023-03-14T01:47:55;14.50;;;3.30;;
25107;SDS011;13090;53.422;7.670;2023-03-14T01:52:58;10.18;;;3.00;;
25107;SDS011;13090;53.422;7.670;2023-03-14T01:58:02;11.70;;;3.53;;
25107;SDS011;13090;53.422;7.670;2023-03-14T02:03:07;11.50;;;2.20;;
25107;SDS011;13090;53.422;7.670;2023-03-14T02:08:14;6.77;;;2.50;;
25107;SDS011;13090;53.422;7.670;2023-03-14T02:13:19;7.22;;;2.45;;
25107;SDS011;13090;53.422;7.670;2023-03-14T02:18:23;7.03;;;2.30;;
25107;SDS011;13090;53.422;7.670;2023-03-14T02:23:29;5.88;;;2.50;;
25107;SDS011;13090;53.422;7.670;2023-03-14T02:28:38;6.38;;;2.60;;
25107;SDS011;13090;53.422;7.670;2023-03-14T02:33:40;5.45;;;2.58;;
25107;SDS011;13090;53.422;7.670;2023-03-14T02:38:45;8.93;;;2.97;;
25107;SDS011;13090;53.422;7.670;2023-03-14T02:43:53;7.25;;;2.60;;
25107;SDS011;13090;53.422;7.670;2023-03-14T02:48:56;5.40;;;2.17;;
25107;SDS011;13090;53.422;7.670;2023-03-14T02:54:03;7.57;;;2.50;;
25107;SDS011;13090;53.422;7.670;2023-03-14T02:59:07;11.93;;;2.83;;
25107;SDS011;13090;53.422;7.670;2023-03-14T03:04:09;10.38;;;2.65;;
25107;SDS011;13090;53.422;7.670;2023-03-14T03:09:11;7.18;;;2.67;;
25107;SDS011;13090;53.422;7.670;2023-03-14T03:14:14;11.57;;;2.80;;
25107;SDS011;13090;53.422;7.670;2023-03-14T03:19:16;12.52;;;2.63;;
25107;SDS011;13090;53.422;7.670;2023-03-14T03:24:19;9.68;;;2.80;;
25107;SDS011;13090;53.422;7.670;2023-03-14T03:29:22;8.55;;;2.30;;
25107;SDS011;13090;53.422;7.670;2023-03-14T03:34:24;10.95;;;2.55;;
25107;SDS011;13090;53.422;7.670;2023-03-14T03:39:28;8.60;;;2.10;;
25107;SDS011;13090;53.422;7.670;2023-03-14T03:44:32;8.95;;;2.33;;
25107;SDS011;13090;53.422;7.670;2023-03-14T03:49:34;8.80;;;2.00;;
25107;SDS011;13090;53.422;7.670;2023-03-14T03:54:36;9.95;;;2.20;;
25107;SDS011;13090;53.422;7.670;2023-03-14T03:59:40;8.90;;;1.98;;
25107;SDS011;13090;53.422;7.670;2023-03-14T04:04:42;15.30;;;2.83;;
25107;SDS011;13090;53.422;7.670;2023-03-14T04:09:44;12.25;;;2.30;;
25107;SDS011;13090;53.422;7.670;2023-03-14T04:14:48;9.40;;;2.55;;
25107;SDS011;13090;53.422;7.670;2023-03-14T04:19:50;13.13;;;3.13;;
25107;SDS011;13090;53.422;7.670;2023-03-14T04:24:52;12.32;;;2.95;;
25107;SDS011;13090;53.422;7.670;2023-03-14T04:29:56;9.27;;;2.85;;
25107;SDS011;13090;53.422;7.670;2023-03-14T04:34:58;9.55;;;2.38;;
25107;SDS011;13090;53.422;7.670;2023-03-14T04:40:00;11.05;;;2.92;;
25107;SDS011;13090;53.422;7.670;2023-03-14T04:45:04;7.88;;;2.42;;
25107;SDS011;13090;53.422;7.670;2023-03-14T04:50:08;8.77;;;2.20;;
25107;SDS011;13090;53.422;7.670;2023-03-14T04:55:11;5.40;;;2.15;;
25107;SDS011;13090;53.422;7.670;2023-03-14T05:00:15;7.18;;;2.45;;
25107;SDS011;13090;53.422;7.670;2023-03-14T05:05:18;7.00;;;2.42;;
25107;SDS011;13090;53.422;7.670;2023-03-14T05:10:20;9.30;;;2.38;;
25107;SDS011;13090;53.422;7.670;2023-03-14T05:15:24;8.13;;;2.30;;
25107;SDS011;13090;53.422;7.670;2023-03-14T05:20:26;10.60;;;2.60;;
25107;SDS011;13090;53.422;7.670;2023-03-14T05:25:28;16.23;;;3.17;;
25107;SDS011;13090;53.422;7.670;2023-03-14T05:30:34;9.57;;;2.78;;
25107;SDS011;13090;53.422;7.670;2023-03-14T05:35:36;7.22;;;2.78;;
25107;SDS011;13090;53.422;7.670;2023-03-14T05:40:38;6.05;;;2.25;;
25107;SDS011;13090;53.422;7.670;2023-03-14T05:45:42;12.35;;;2.67;;
25107;SDS011;13090;53.422;7.670;2023-03-14T05:50:44;8.85;;;2.83;;
25107;SDS011;13090;53.422;7.670;2023-03-14T05:55:46;5.90;;;2.38;;
25107;SDS011;13090;53.422;7.670;2023-03-14T06:00:50;5.10;;;2.33;;
25107;SDS011;13090;53.422;7.670;2023-03-14T06:05:53;7.57;;;2.60;;
25107;SDS011;13090;53.422;7.670;2023-03-14T06:10:56;5.55;;;2.63;;
25107;SDS011;13090;53.422;7.670;2023-03-14T06:16:00;6.75;;;2.85;;
25107;SDS011;13090;53.422;7.670;2023-03-14T06:21:02;8.70;;;2.60;;
25107;SDS011;13090;53.422;7.670;2023-03-14T06:26:05;10.00;;;2.67;;
25107;SDS011;13090;53.422;7.670;2023-03-14T06:31:09;7.07;;;3.00;;
25107;SDS011;13090;53.422;7.670;2023-03-14T06:36:11;8.05;;;3.60;;
25107;SDS011;13090;53.422;7.670;2023-03-14T06:41:13;4.95;;;2.95;;
25107;SDS011;13090;53.422;7.670;2023-03-14T06:46:17;8.85;;;3.53;;
25107;SDS011;13090;53.422;7.670;2023-03-14T06:51:20;6.82;;;3.72;;
25107;SDS011;13090;53.422;7.670;2023-03-14T06:56:22;11.45;;;4.07;;
25107;SDS011;13090;53.422;7.670;2023-03-14T07:01:27;8.90;;;3.22;;
25107;SDS011;13090;53.422;7.670;2023-03-14T07:06:31;8.43;;;3.42;;
25107;SDS011;13090;53.422;7.670;2023-03-14T07:11:34;9.13;;;3.55;;
25107;SDS011;13090;53.422;7.670;2023-03-14T07:16:37;6.20;;;2.17;;
25107;SDS011;13090;53.422;7.670;2023-03-14T07:21:40;4.40;;;2.55;;
25107;SDS011;13090;53.422;7.670;2023-03-14T07:26:42;5.60;;;2.65;;
25107;SDS011;13090;53.422;7.670;2023-03-14T07:31:45;5.43;;;1.50;;
25107;SDS011;13090;53.422;7.670;2023-03-14T07:36:47;6.13;;;2.15;;
25107;SDS011;13090;53.422;7.670;2023-03-14T07:41:50;5.80;;;1.40;;
25107;SDS011;13090;53.422;7.670;2023-03-14T07:46:53;7.68;;;1.48;;
25107;SDS011;13090;53.422;7.670;2023-03-14T07:51:56;9.60;;;1.95;;
25107;SDS011;13090;53.422;7.670;2023-03-14T07:56:58;6.45;;;1.20;;
25107;SDS011;13090;53.422;7.670;2023-03-14T08:02:01;3.05;;;1.20;;
25107;SDS011;13090;53.422;7.670;2023-03-14T08:07:04;3.75;;;0.90;;
25107;SDS011;13090;53.422;7.670;2023-03-14T08:12:06;1.63;;;0.50;;
25107;SDS011;13090;53.422;7.670;2023-03-14T08:17:10;1.85;;;0.70;;
25107;SDS011;13090;53.422;7.670;2023-03-14T08:22:12;0.47;;;0.40;;
25107;SDS011;13090;53.422;7.670;2023-03-14T08:27:15;1.75;;;0.50;;
25107;SDS011;13090;53.422;7.670;2023-03-14T08:32:18;0.77;;;0.47;;
25107;SDS011;13090;53.422;7.670;2023-03-14T08:37:21;2.88;;;0.50;;
25107;SDS011;13090;53.422;7.670;2023-03-14T08:42:27;0.87;;;0.40;;
25107;SDS011;13090;53.422;7.670;2023-03-14T08:47:31;1.83;;;0.60;;
25107;SDS011;13090;53.422;7.670;2023-03-14T08:52:33;3.90;;;1.13;;
25107;SDS011;13090;53.422;7.670;2023-03-14T08:57:36;3.28;;;0.70;;
25107;SDS011;13090;53.422;7.670;2023-03-14T09:02:40;6.63;;;0.80;;
25107;SDS011;13090;53.422;7.670;2023-03-14T09:07:42;3.67;;;0.80;;
25107;SDS011;13090;53.422;7.670;2023-03-14T09:12:44;8.07;;;2.22;;
25107;SDS011;13090;53.422;7.670;2023-03-14T09:17:48;5.38;;;1.70;;
25107;SDS011;13090;53.422;7.670;2023-03-14T09:22:50;6.65;;;1.60;;
25107;SDS011;13090;53.422;7.670;2023-03-14T09:27:52;9.25;;;1.65;;
25107;SDS011;13090;53.422;7.670;2023-03-14T09:32:56;9.18;;;1.63;;
25107;SDS011;13090;53.422;7.670;2023-03-14T09:37:58;8.60;;;1.27;;
25107;SDS011;13090;53.422;7.670;2023-03-14T09:43:01;7.35;;;1.50;;
25107;SDS011;13090;53.422;7.670;2023-03-14T09:48:05;12.13;;;1.42;;
25107;SDS011;13090;53.422;7.670;2023-03-14T09:53:15;9.77;;;1.58;;
25107;SDS011;13090;53.422;7.670;2023-03-14T09:58:20;8.35;;;1.70;;
25107;SDS011;13090;53.422;7.670;2023-03-14T10:03:29;11.05;;;2.33;;
25107;SDS011;13090;53.422;7.670;2023-03-14T10:08:38;14.27;;;2.10;;
25107;SDS011;13090;53.422;7.670;2023-03-14T10:13:48;13.52;;;2.25;;
25107;SDS011;13090;53.422;7.670;2023-03-14T10:18:53;11.38;;;2.03;;
25107;SDS011;13090;53.422;7.670;2023-03-14T10:24:07;18.73;;;2.28;;
25107;SDS011;13090;53.422;7.670;2023-03-14T10:29:11;7.18;;;1.60;;
25107;SDS011;13090;53.422;7.670;2023-03-14T10:34:17;10.23;;;2.10;;
25107;SDS011;13090;53.422;7.670;2023-03-14T10:39:29;15.18;;;2.55;;
25107;SDS011;13090;53.422;7.670;2023-03-14T10:44:39;21.25;;;2.85;;
25107;SDS011;13090;53.422;7.670;2023-03-14T10:49:44;11.48;;;2.35;;
25107;SDS011;13090;53.422;7.670;2023-03-14T10:54:47;12.82;;;1.90;;
25107;SDS011;13090;53.422;7.670;2023-03-14T10:59:50;21.63;;;2.83;;
25107;SDS011;13090;53.422;7.670;2023-03-14T11:04:57;12.52;;;2.17;;
25107;SDS011;13090;53.422;7.670;2023-03-14T11:10:08;16.85;;;2.50;;
25107;SDS011;13090;53.422;7.670;2023-03-14T11:15:18;13.98;;;1.85;;
25107;SDS011;13090;53.422;7.670;2023-03-14T11:20:31;17.45;;;2.53;;
25107;SDS011;13090;53.422;7.670;2023-03-14T11:25:41;7.95;;;1.38;;
25107;SDS011;13090;53.422;7.670;2023-03-14T11:30:51;13.93;;;2.83;;
25107;SDS011;13090;53.422;7.670;2023-03-14T11:35:59;10.57;;;2.25;;
25107;SDS011;13090;53.422;7.670;2023-03-14T11:41:09;10.57;;;2.00;;
25107;SDS011;13090;53.422;7.670;2023-03-14T11:46:17;9.80;;;1.45;;
25107;SDS011;13090;53.422;7.670;2023-03-14T11:51:25;12.82;;;1.55;;
25107;SDS011;13090;53.422;7.670;2023-03-14T11:56:34;9.63;;;1.63;;
25107;SDS011;13090;53.422;7.670;2023-03-14T12:01:51;10.95;;;1.48;;
25107;SDS011;13090;53.422;7.670;2023-03-14T12:06:57;9.18;;;1.60;;
25107;SDS011;13090;53.422;7.670;2023-03-14T12:12:04;5.22;;;1.38;;
25107;SDS011;13090;53.422;7.670;2023-03-14T12:17:18;5.50;;;1.35;;
25107;SDS011;13090;53.422;7.670;2023-03-14T12:22:24;8.75;;;1.80;;
25107;SDS011;13090;53.422;7.670;2023-03-14T12:38:25;8.80;;;1.98;;
25107;SDS011;13090;53.422;7.670;2023-03-14T12:43:40;11.88;;;1.88;;
25107;SDS011;13090;53.422;7.670;2023-03-14T12:48:43;6.50;;;1.50;;
25107;SDS011;13090;53.422;7.670;2023-03-14T12:53:55;6.78;;;1.35;;
25107;SDS011;13090;53.422;7.670;2023-03-14T12:59:17;6.30;;;1.55;;
25107;SDS011;13090;53.422;7.670;2023-03-14T13:04:32;5.28;;;1.25;;
25107;SDS011;13090;53.422;7.670;2023-03-14T13:15:14;10.57;;;1.23;;
25107;SDS011;13090;53.422;7.670;2023-03-14T13:20:23;11.45;;;1.55;;
25107;SDS011;13090;53.422;7.670;2023-03-14T13:30:55;5.20;;;1.30;;
25107;SDS011;13090;53.422;7.670;2023-03-14T13:36:01;8.87;;;1.30;;
25107;SDS011;13090;53.422;7.670;2023-03-14T13:41:07;7.68;;;1.30;;
25107;SDS011;13090;53.422;7.670;2023-03-14T13:46:27;8.65;;;1.42;;
25107;SDS011;13090;53.422;7.670;2023-03-14T13:51:29;11.77;;;2.22;;
25107;SDS011;13090;53.422;7.670;2023-03-14T13:56:35;9.50;;;3.20;;
25107;SDS011;13090;53.422;7.670;2023-03-14T14:01:54;11.43;;;2.63;;
25107;SDS011;13090;53.422;7.670;2023-03-14T14:07:18;10.18;;;2.38;;
25107;SDS011;13090;53.422;7.670;2023-03-14T14:12:22;5.85;;;1.73;;
25107;SDS011;13090;53.422;7.670;2023-03-14T14:17:35;4.70;;;1.70;;
25107;SDS011;13090;53.422;7.670;2023-03-14T14:22:41;9.02;;;1.30;;
25107;SDS011;13090;53.422;7.670;2023-03-14T14:27:46;7.88;;;1.73;;
25107;SDS011;13090;53.422;7.670;2023-03-14T14:32:51;4.07;;;1.42;;
25107;SDS011;13090;53.422;7.670;2023-03-14T14:38:08;7.75;;;1.52;;
25107;SDS011;13090;53.422;7.670;2023-03-14T14:43:17;6.30;;;1.33;;
25107;SDS011;13090;53.422;7.670;2023-03-14T14:48:22;6.47;;;1.30;;
25107;SDS011;13090;53.422;7.670;2023-03-14T14:53:41;10.07;;;1.10;;
25107;SDS011;13090;53.422;7.670;2023-03-14T14:58:47;11.30;;;1.48;;
25107;SDS011;13090;53.422;7.670;2023-03-14T15:03:54;5.63;;;1.40;;
25107;SDS011;13090;53.422;7.670;2023-03-14T15:08:56;8.75;;;1.40;;
25107;SDS011;13090;53.422;7.670;2023-03-14T15:14:12;11.13;;;3.15;;
25107;SDS011;13090;53.422;7.670;2023-03-14T15:19:19;9.40;;;1.98;;
25107;SDS011;13090;53.422;7.670;2023-03-14T15:24:26;8.25;;;1.75;;
25107;SDS011;13090;53.422;7.670;2023-03-14T15:29:30;8.32;;;1.85;;
25107;SDS011;13090;53.422;7.670;2023-03-14T15:34:46;10.52;;;1.95;;
25107;SDS011;13090;53.422;7.670;2023-03-14T15:39:48;7.47;;;1.63;;
25107;SDS011;13090;53.422;7.670;2023-03-14T15:44:52;9.05;;;1.63;;
25107;SDS011;13090;53.422;7.670;2023-03-14T15:49:55;8.25;;;1.45;;
25107;SDS011;13090;53.422;7.670;2023-03-14T15:54:57;2.47;;;1.25;;
25107;SDS011;13090;53.422;7.670;2023-03-14T16:00:04;5.55;;;1.52;;
25107;SDS011;13090;53.422;7.670;2023-03-14T16:05:09;8.75;;;1.35;;
25107;SDS011;13090;53.422;7.670;2023-03-14T16:10:12;9.70;;;1.80;;
25107;SDS011;13090;53.422;7.670;2023-03-14T16:15:18;4.40;;;1.20;;
25107;SDS011;13090;53.422;7.670;2023-03-14T16:20:21;8.35;;;1.45;;
25107;SDS011;13090;53.422;7.670;2023-03-14T16:25:26;6.55;;;1.30;;
25107;SDS011;13090;53.422;7.670;2023-03-14T16:30:31;7.93;;;1.05;;
25107;SDS011;13090;53.422;7.670;2023-03-14T16:35:36;5.93;;;1.17;;
25107;SDS011;13090;53.422;7.670;2023-03-14T16:40:42;6.40;;;1.48;;
25107;SDS011;13090;53.422;7.670;2023-03-14T16:46:01;3.45;;;1.00;;
25107;SDS011;13090;53.422;7.670;2023-03-14T16:51:11;7.22;;;1.13;;
25107;SDS011;13090;53.422;7.670;2023-03-14T16:56:24;4.68;;;1.67;;
25107;SDS011;13090;53.422;7.670;2023-03-14T17:01:33;7.50;;;1.63;;
25107;SDS011;13090;53.422;7.670;2023-03-14T17:06:43;4.57;;;1.20;;
25107;SDS011;13090;53.422;7.670;2023-03-14T17:11:45;5.38;;;1.55;;
25107;SDS011;13090;53.422;7.670;2023-03-14T17:17:00;5.93;;;1.08;;
25107;SDS011;13090;53.422;7.670;2023-03-14T17:22:09;5.90;;;2.28;;
25107;SDS011;13090;53.422;7.670;2023-03-14T17:27:26;7.47;;;1.77;;
25107;SDS011;13090;53.422;7.670;2023-03-14T17:37:59;5.03;;;1.65;;
25107;SDS011;13090;53.422;7.670;2023-03-14T17:43:23;4.55;;;1.60;;
25107;SDS011;13090;53.422;7.670;2023-03-14T17:49:01;4.47;;;1.70;;
25107;SDS011;13090;53.422;7.670;2023-03-14T17:54:10;5.25;;;2.22;;
25107;SDS011;13090;53.422;7.670;2023-03-14T17:59:16;4.38;;;1.55;;
25107;SDS011;13090;53.422;7.670;2023-03-14T18:09:36;16.73;;;8.23;;
25107;SDS011;13090;53.422;7.670;2023-03-14T18:14:48;10.52;;;4.63;;
25107;SDS011;13090;53.422;7.670;2023-03-14T18:20:02;7.63;;;2.85;;
25107;SDS011;13090;53.422;7.670;2023-03-14T18:25:10;7.32;;;1.50;;
25107;SDS011;13090;53.422;7.670;2023-03-14T18:30:19;9.52;;;1.70;;
25107;SDS011;13090;53.422;7.670;2023-03-14T18:41:37;4.60;;;0.85;;
25107;SDS011;13090;53.422;7.670;2023-03-14T18:47:14;7.65;;;1.33;;
25107;SDS011;13090;53.422;7.670;2023-03-14T19:05:21;4.43;;;1.23;;
25107;SDS011;13090;53.422;7.670;2023-03-14T19:10:53;4.13;;;1.23;;
25107;SDS011;13090;53.422;7.670;2023-03-14T19:16:57;4.13;;;1.08;;
25107;SDS011;13090;53.422;7.670;2023-03-14T19:29:01;2.42;;;1.20;;
25107;SDS011;13090;53.422;7.670;2023-03-14T19:34:03;4.97;;;1.00;;
25107;SDS011;13090;53.422;7.670;2023-03-14T19:39:05;7.95;;;1.63;;
25107;SDS011;13090;53.422;7.670;2023-03-14T19:44:09;6.85;;;1.80;;
25107;SDS011;13090;53.422;7.670;2023-03-14T19:49:11;7.60;;;4.55;;
25107;SDS011;13090;53.422;7.670;2023-03-14T19:54:13;5.47;;;2.90;;
25107;SDS011;13090;53.422;7.670;2023-03-14T19:59:17;10.48;;;8.70;;
25107;SDS011;13090;53.422;7.670;2023-03-14T20:04:19;18.75;;;12.35;;
25107;SDS011;13090;53.422;7.670;2023-03-14T20:09:22;11.27;;;8.00;;
25107;SDS011;13090;53.422;7.670;2023-03-14T20:14:25;4.40;;;2.60;;
25107;SDS011;13090;53.422;7.670;2023-03-14T20:19:27;5.85;;;2.30;;
25107;SDS011;13090;53.422;7.670;2023-03-14T20:24:30;4.93;;;2.67;;
25107;SDS011;13090;53.422;7.670;2023-03-14T20:29:34;3.67;;;1.65;;
25107;SDS011;13090;53.422;7.670;2023-03-14T20:34:36;4.55;;;2.15;;
25107;SDS011;13090;53.422;7.670;2023-03-14T20:39:39;3.55;;;1.45;;
25107;SDS011;13090;53.422;7.670;2023-03-14T20:44:43;4.28;;;1.45;;
25107;SDS011;13090;53.422;7.670;2023-03-14T20:49:45;5.68;;;1.65;;
25107;SDS011;13090;53.422;7.670;2023-03-14T20:54:48;4.80;;;1.20;;
25107;SDS011;13090;53.422;7.670;2023-03-14T20:59:51;4.60;;;1.40;;
25107;SDS011;13090;53.422;7.670;2023-03-14T21:04:55;5.30;;;2.00;;
25107;SDS011;13090;53.422;7.670;2023-03-14T21:09:58;7.45;;;2.00;;
25107;SDS011;13090;53.422;7.670;2023-03-14T21:15:02;5.43;;;1.48;;
25107;SDS011;13090;53.422;7.670;2023-03-14T21:20:04;14.35;;;6.53;;
25107;SDS011;13090;53.422;7.670;2023-03-14T21:25:08;8.95;;;3.25;;
25107;SDS011;13090;53.422;7.670;2023-03-14T21:30:13;4.22;;;1.90;;
25107;SDS011;13090;53.422;7.670;2023-03-14T21:35:15;6.57;;;1.88;;
25107;SDS011;13090;53.422;7.670;2023-03-14T21:40:18;7.45;;;2.65;;
25107;SDS011;13090;53.422;7.670;2023-03-14T21:45:22;4.90;;;2.00;;
25107;SDS011;13090;53.422;7.670;2023-03-14T21:50:25;5.57;;;1.50;;
25107;SDS011;13090;53.422;7.670;2023-03-14T21:55:28;3.80;;;1.52;;
25107;SDS011;13090;53.422;7.670;2023-03-14T22:00:31;7.53;;;1.50;;
25107;SDS011;13090;53.422;7.670;2023-03-14T22:05:34;3.58;;;2.05;;
25107;SDS011;13090;53.422;7.670;2023-03-14T22:10:41;7.22;;;2.83;;
25107;SDS011;13090;53.422;7.670;2023-03-14T22:15:46;5.70;;;1.70;;
25107;SDS011;13090;53.422;7.670;2023-03-14T22:20:50;5.63;;;1.70;;
25107;SDS011;13090;53.422;7.670;2023-03-14T22:25:52;5.47;;;1.80;;
25107;SDS011;13090;53.422;7.670;2023-03-14T22:30:56;5.68;;;2.20;;
25107;SDS011;13090;53.422;7.670;2023-03-14T22:35:59;7.35;;;2.20;;
25107;SDS011;13090;53.422;7.670;2023-03-14T22:41:01;8.75;;;1.67;;
25107;SDS011;13090;53.422;7.670;2023-03-14T22:46:06;6.07;;;1.52;;
25107;SDS011;13090;53.422;7.670;2023-03-14T22:51:10;4.75;;;1.80;;
25107;SDS011;13090;53.422;7.670;2023-03-14T22:56:13;9.85;;;1.80;;
25107;SDS011;13090;53.422;7.670;2023-03-14T23:01:17;6.53;;;1.58;;
25107;SDS011;13090;53.422;7.670;2023-03-14T23:06:19;8.35;;;1.80;;
25107;SDS011;13090;53.422;7.670;2023-03-14T23:11:22;7.22;;;1.75;;
25107;SDS011;13090;53.422;7.670;2023-03-14T23:16:25;10.90;;;1.83;;
25107;SDS011;13090;53.422;7.670;2023-03-14T23:21:40;5.10;;;1.37;;
25107;SDS011;13090;53.422;7.670;2023-03-14T23:26:43;7.00;;;2.00;;
25107;SDS011;13090;53.422;7.670;2023-03-14T23:31:46;11.07;;;2.08;;
25107;SDS011;13090;53.422;7.670;2023-03-14T23:36:48;6.57;;;1.77;;
25107;SDS011;13090;53.422;7.670;2023-03-14T23:41:51;8.68;;;1.98;;
25107;SDS011;13090;53.422;7.670;2023-03-14T23:46:54;9.95;;;2.20;;
25107;SDS011;13090;53.422;7.670;2023-03-14T23:51:56;8.07;;;1.83;;
25107;SDS011;13090;53.422;7.670;2023-03-14T23:57:02;8.00;;;1.98;;
